Pagrindinis puslapis
METAR-TAF:

METAR-TAF

Oro uostai :

Oro pajėgų bazė

Tafraoui, Alžyras

platuma: 35-32-33N, ilguma: 000-31-56W, Aukštis: 112 m

Dabartinis oras

Ataskaita buvo paskelbta 37 minutes, ne 10:00 UTC
Vėjas 4 kt iš Šiaurės Vakarų
Temperatūra 14°C
Drėgmė 55%
Slėgis 1019 hPa
Matomumas 10 km arba daugiau
nėra debesų žemiau 1500 m ir nėra kamuolinių lietaus debesų

METAR: DAOL 251000Z 31004KT CAVOK 14/05 Q1019

Laikas: 11:37 (10:37 UTC)


TAF: trūkstamas

Orai ataskaitas ir orų prognozės (METAR, TAF).

turimą stotys yra geltonos ir raudonos taškus žemėlapyje.

Perkelti pele per norėdami pamatyti stoties vardą.

Tada spustelėkite, norėdami matyti oro stebėjimo ir prognozės.

Norėdami pakeisti žemėlapį: spustelėkite ant žalios mygtukų su juodo kryžiaus žemyn,; žalią mygtuką su brūkšneliu, jei norite nutolinti; arba žalių rodyklių gretimoms žemėlapius.


METAR-TAF: